Acampo, California
Current Conditions -  °F | °C
As of 3:55 AM on Saturday 25 Oct 2014 (Local Time) from KSCK Reporting Station
Clear Clear  
Wind Chill: 56°   Ceiling: Unl
Heat Index: 56°   Visibility: 10mi
Dew Point: 51°   Wind: 13mph
Humidity: 84%   Direction: 90°E
Pressure: 29.92"   Gusts: NA
Location:  38.17°N, 121.28°W
Report Text: KSCK 251055Z AUTO 09011KT 10SM CLR 13/11 A2992 RMK AO2 SLP133 T01330106
Loading
Personal Weather Stations






























Interactive Weather Map
Tropical Storm Tracking
New forecast layout! Learn more

10-Day Weather Forecast

Advertisements
Track Severe Weather on mobile